sensor_id;sensor_type;location;lat;lon;timestamp;P1;durP1;ratioP1;P2;durP2;ratioP2
65751;SDS011;52486;51.098;13.770;2022-08-19T00:00:10;3.72;;;3.42;;
65751;SDS011;52486;51.098;13.770;2022-08-19T00:02:39;3.50;;;3.20;;
65751;SDS011;52486;51.098;13.770;2022-08-19T00:05:05;3.60;;;3.30;;
65751;SDS011;52486;51.098;13.770;2022-08-19T00:07:32;3.72;;;3.42;;
65751;SDS011;52486;51.098;13.770;2022-08-19T00:09:57;4.85;;;3.17;;
65751;SDS011;52486;51.098;13.770;2022-08-19T00:12:23;3.60;;;3.30;;
65751;SDS011;52486;51.098;13.770;2022-08-19T00:14:48;3.55;;;3.25;;
65751;SDS011;52486;51.098;13.770;2022-08-19T00:17:14;3.38;;;3.17;;
65751;SDS011;52486;51.098;13.770;2022-08-19T00:19:40;3.40;;;3.10;;
65751;SDS011;52486;51.098;13.770;2022-08-19T00:22:05;3.65;;;3.35;;
65751;SDS011;52486;51.098;13.770;2022-08-19T00:24:33;4.45;;;3.28;;
65751;SDS011;52486;51.098;13.770;2022-08-19T00:26:59;3.70;;;3.40;;
65751;SDS011;52486;51.098;13.770;2022-08-19T00:29:26;3.67;;;3.30;;
65751;SDS011;52486;51.098;13.770;2022-08-19T00:31:52;3.15;;;2.90;;
65751;SDS011;52486;51.098;13.770;2022-08-19T00:34:21;3.80;;;3.50;;
65751;SDS011;52486;51.098;13.770;2022-08-19T00:36:47;3.50;;;3.20;;
65751;SDS011;52486;51.098;13.770;2022-08-19T00:39:17;3.20;;;2.90;;
65751;SDS011;52486;51.098;13.770;2022-08-19T00:41:43;3.65;;;3.30;;
65751;SDS011;52486;51.098;13.770;2022-08-19T00:44:14;3.80;;;3.30;;
65751;SDS011;52486;51.098;13.770;2022-08-19T00:46:45;3.50;;;3.20;;
65751;SDS011;52486;51.098;13.770;2022-08-19T00:51:53;3.63;;;3.33;;
65751;SDS011;52486;51.098;13.770;2022-08-19T00:54:24;3.53;;;3.22;;
65751;SDS011;52486;51.098;13.770;2022-08-19T00:56:50;3.53;;;3.22;;
65751;SDS011;52486;51.098;13.770;2022-08-19T00:59:16;3.60;;;3.30;;
65751;SDS011;52486;51.098;13.770;2022-08-19T01:01:44;3.42;;;3.05;;
65751;SDS011;52486;51.098;13.770;2022-08-19T01:04:11;3.65;;;3.35;;
65751;SDS011;52486;51.098;13.770;2022-08-19T01:06:37;3.20;;;3.00;;
65751;SDS011;52486;51.098;13.770;2022-08-19T01:09:06;3.30;;;3.03;;
65751;SDS011;52486;51.098;13.770;2022-08-19T01:11:33;5.03;;;3.35;;
65751;SDS011;52486;51.098;13.770;2022-08-19T01:14:01;3.35;;;3.05;;
65751;SDS011;52486;51.098;13.770;2022-08-19T01:16:28;3.75;;;3.40;;
65751;SDS011;52486;51.098;13.770;2022-08-19T01:18:55;3.85;;;3.55;;
65751;SDS011;52486;51.098;13.770;2022-08-19T01:21:22;3.63;;;3.33;;
65751;SDS011;52486;51.098;13.770;2022-08-19T01:24:05;3.47;;;3.17;;
65751;SDS011;52486;51.098;13.770;2022-08-19T01:26:31;3.22;;;3.00;;
65751;SDS011;52486;51.098;13.770;2022-08-19T01:29:02;3.42;;;3.13;;
65751;SDS011;52486;51.098;13.770;2022-08-19T01:31:28;3.33;;;3.08;;
65751;SDS011;52486;51.098;13.770;2022-08-19T01:33:57;3.15;;;2.95;;
65751;SDS011;52486;51.098;13.770;2022-08-19T01:36:25;3.25;;;3.05;;
65751;SDS011;52486;51.098;13.770;2022-08-19T01:38:56;3.22;;;2.97;;
65751;SDS011;52486;51.098;13.770;2022-08-19T01:41:23;3.53;;;3.22;;
65751;SDS011;52486;51.098;13.770;2022-08-19T01:43:49;3.83;;;3.53;;
65751;SDS011;52486;51.098;13.770;2022-08-19T01:46:15;5.45;;;3.40;;
65751;SDS011;52486;51.098;13.770;2022-08-19T01:48:42;3.50;;;3.20;;
65751;SDS011;52486;51.098;13.770;2022-08-19T01:51:09;3.63;;;3.42;;
65751;SDS011;52486;51.098;13.770;2022-08-19T01:53:35;3.50;;;3.20;;
65751;SDS011;52486;51.098;13.770;2022-08-19T01:56:02;3.58;;;3.28;;
65751;SDS011;52486;51.098;13.770;2022-08-19T01:58:31;3.45;;;3.00;;
65751;SDS011;52486;51.098;13.770;2022-08-19T02:01:01;3.55;;;3.25;;
65751;SDS011;52486;51.098;13.770;2022-08-19T02:03:28;3.30;;;3.10;;
65751;SDS011;52486;51.098;13.770;2022-08-19T02:05:58;3.85;;;3.53;;
65751;SDS011;52486;51.098;13.770;2022-08-19T02:08:26;4.32;;;3.17;;
65751;SDS011;52486;51.098;13.770;2022-08-19T02:10:52;3.92;;;3.53;;
65751;SDS011;52486;51.098;13.770;2022-08-19T02:13:18;3.50;;;3.20;;
65751;SDS011;52486;51.098;13.770;2022-08-19T02:15:44;3.60;;;3.30;;
65751;SDS011;52486;51.098;13.770;2022-08-19T02:18:10;3.60;;;3.30;;
65751;SDS011;52486;51.098;13.770;2022-08-19T02:20:37;4.57;;;3.38;;
65751;SDS011;52486;51.098;13.770;2022-08-19T02:23:05;3.83;;;3.53;;
65751;SDS011;52486;51.098;13.770;2022-08-19T02:25:31;3.67;;;3.38;;
65751;SDS011;52486;51.098;13.770;2022-08-19T02:27:56;3.67;;;3.38;;
65751;SDS011;52486;51.098;13.770;2022-08-19T02:30:22;3.22;;;2.92;;
65751;SDS011;52486;51.098;13.770;2022-08-19T02:32:49;3.75;;;3.45;;
65751;SDS011;52486;51.098;13.770;2022-08-19T02:35:15;3.45;;;3.15;;
65751;SDS011;52486;51.098;13.770;2022-08-19T02:37:42;3.88;;;3.58;;
65751;SDS011;52486;51.098;13.770;2022-08-19T02:40:28;4.10;;;3.70;;
65751;SDS011;52486;51.098;13.770;2022-08-19T02:42:57;3.55;;;3.25;;
65751;SDS011;52486;51.098;13.770;2022-08-19T02:45:22;5.05;;;3.50;;
65751;SDS011;52486;51.098;13.770;2022-08-19T02:47:48;3.88;;;3.28;;
65751;SDS011;52486;51.098;13.770;2022-08-19T02:50:14;3.92;;;3.60;;
65751;SDS011;52486;51.098;13.770;2022-08-19T02:52:40;3.65;;;3.35;;
65751;SDS011;52486;51.098;13.770;2022-08-19T02:55:06;5.35;;;3.75;;
65751;SDS011;52486;51.098;13.770;2022-08-19T02:57:32;4.10;;;3.80;;
65751;SDS011;52486;51.098;13.770;2022-08-19T02:59:58;4.90;;;3.70;;
65751;SDS011;52486;51.098;13.770;2022-08-19T03:02:24;3.85;;;3.55;;
65751;SDS011;52486;51.098;13.770;2022-08-19T03:04:49;4.85;;;3.58;;
65751;SDS011;52486;51.098;13.770;2022-08-19T03:07:16;3.80;;;3.50;;
65751;SDS011;52486;51.098;13.770;2022-08-19T03:09:43;4.20;;;3.40;;
65751;SDS011;52486;51.098;13.770;2022-08-19T03:12:09;4.13;;;3.72;;
65751;SDS011;52486;51.098;13.770;2022-08-19T03:14:36;4.35;;;3.45;;
65751;SDS011;52486;51.098;13.770;2022-08-19T03:17:02;3.53;;;3.22;;
65751;SDS011;52486;51.098;13.770;2022-08-19T03:19:29;3.80;;;3.50;;
65751;SDS011;52486;51.098;13.770;2022-08-19T03:21:56;5.15;;;3.38;;
65751;SDS011;52486;51.098;13.770;2022-08-19T03:24:23;4.45;;;3.60;;
65751;SDS011;52486;51.098;13.770;2022-08-19T03:26:53;3.67;;;3.38;;
65751;SDS011;52486;51.098;13.770;2022-08-19T03:29:24;3.88;;;3.55;;
65751;SDS011;52486;51.098;13.770;2022-08-19T03:31:53;3.38;;;3.17;;
65751;SDS011;52486;51.098;13.770;2022-08-19T03:34:23;4.00;;;3.60;;
65751;SDS011;52486;51.098;13.770;2022-08-19T03:36:54;4.00;;;3.70;;
65751;SDS011;52486;51.098;13.770;2022-08-19T03:39:22;4.00;;;3.67;;
65751;SDS011;52486;51.098;13.770;2022-08-19T03:41:49;3.80;;;3.50;;
65751;SDS011;52486;51.098;13.770;2022-08-19T03:44:18;4.28;;;3.88;;
65751;SDS011;52486;51.098;13.770;2022-08-19T03:46:47;4.18;;;3.88;;
65751;SDS011;52486;51.098;13.770;2022-08-19T03:49:15;3.67;;;3.38;;
65751;SDS011;52486;51.098;13.770;2022-08-19T03:51:41;4.03;;;3.72;;
65751;SDS011;52486;51.098;13.770;2022-08-19T03:54:10;3.75;;;3.45;;
65751;SDS011;52486;51.098;13.770;2022-08-19T03:56:38;3.72;;;3.33;;
65751;SDS011;52486;51.098;13.770;2022-08-19T03:59:05;3.60;;;3.30;;
65751;SDS011;52486;51.098;13.770;2022-08-19T04:01:34;4.10;;;3.70;;
65751;SDS011;52486;51.098;13.770;2022-08-19T04:04:00;3.70;;;3.40;;
65751;SDS011;52486;51.098;13.770;2022-08-19T04:06:27;3.95;;;3.47;;
65751;SDS011;52486;51.098;13.770;2022-08-19T04:08:55;4.70;;;4.00;;
65751;SDS011;52486;51.098;13.770;2022-08-19T04:11:27;3.80;;;3.50;;
65751;SDS011;52486;51.098;13.770;2022-08-19T04:13:55;4.13;;;3.72;;
65751;SDS011;52486;51.098;13.770;2022-08-19T04:16:23;4.30;;;3.28;;
65751;SDS011;52486;51.098;13.770;2022-08-19T04:18:53;4.00;;;3.67;;
65751;SDS011;52486;51.098;13.770;2022-08-19T04:21:20;3.83;;;3.42;;
65751;SDS011;52486;51.098;13.770;2022-08-19T04:26:15;6.05;;;3.70;;
65751;SDS011;52486;51.098;13.770;2022-08-19T04:28:46;3.80;;;3.50;;
65751;SDS011;52486;51.098;13.770;2022-08-19T04:31:16;3.90;;;3.60;;
65751;SDS011;52486;51.098;13.770;2022-08-19T04:33:44;3.83;;;3.50;;
65751;SDS011;52486;51.098;13.770;2022-08-19T04:36:17;4.18;;;3.78;;
65751;SDS011;52486;51.098;13.770;2022-08-19T04:38:45;4.40;;;3.88;;
65751;SDS011;52486;51.098;13.770;2022-08-19T04:41:12;3.90;;;3.60;;
65751;SDS011;52486;51.098;13.770;2022-08-19T04:43:56;4.30;;;3.70;;
65751;SDS011;52486;51.098;13.770;2022-08-19T04:46:22;4.20;;;3.80;;
65751;SDS011;52486;51.098;13.770;2022-08-19T04:48:47;3.72;;;3.42;;
65751;SDS011;52486;51.098;13.770;2022-08-19T04:51:13;4.18;;;3.88;;
65751;SDS011;52486;51.098;13.770;2022-08-19T04:53:40;4.15;;;3.75;;
65751;SDS011;52486;51.098;13.770;2022-08-19T05:01:03;4.25;;;3.45;;
65751;SDS011;52486;51.098;13.770;2022-08-19T05:03:29;4.00;;;3.38;;
65751;SDS011;52486;51.098;13.770;2022-08-19T05:05:59;4.10;;;3.80;;
65751;SDS011;52486;51.098;13.770;2022-08-19T05:08:33;4.18;;;3.70;;
65751;SDS011;52486;51.098;13.770;2022-08-19T05:11:01;3.78;;;3.47;;
65751;SDS011;52486;51.098;13.770;2022-08-19T05:13:32;4.00;;;3.70;;
65751;SDS011;52486;51.098;13.770;2022-08-19T05:15:58;4.03;;;3.50;;
65751;SDS011;52486;51.098;13.770;2022-08-19T05:18:25;4.60;;;3.72;;
65751;SDS011;52486;51.098;13.770;2022-08-19T05:21:10;3.90;;;3.60;;
65751;SDS011;52486;51.098;13.770;2022-08-19T05:23:57;4.03;;;3.72;;
65751;SDS011;52486;51.098;13.770;2022-08-19T05:26:23;4.25;;;3.90;;
65751;SDS011;52486;51.098;13.770;2022-08-19T05:28:51;4.05;;;3.75;;
65751;SDS011;52486;51.098;13.770;2022-08-19T05:31:17;3.78;;;3.47;;
65751;SDS011;52486;51.098;13.770;2022-08-19T05:33:43;3.95;;;3.65;;
65751;SDS011;52486;51.098;13.770;2022-08-19T05:36:09;4.07;;;3.78;;
65751;SDS011;52486;51.098;13.770;2022-08-19T05:38:35;8.25;;;7.28;;
65751;SDS011;52486;51.098;13.770;2022-08-19T05:41:08;9.20;;;6.78;;
65751;SDS011;52486;51.098;13.770;2022-08-19T05:43:35;16.33;;;6.60;;
65751;SDS011;52486;51.098;13.770;2022-08-19T05:46:02;7.15;;;6.45;;
65751;SDS011;52486;51.098;13.770;2022-08-19T05:51:04;10.85;;;8.00;;
65751;SDS011;52486;51.098;13.770;2022-08-19T05:53:31;11.32;;;8.93;;
65751;SDS011;52486;51.098;13.770;2022-08-19T05:55:58;11.75;;;9.05;;
65751;SDS011;52486;51.098;13.770;2022-08-19T05:58:29;9.82;;;8.30;;
65751;SDS011;52486;51.098;13.770;2022-08-19T06:00:55;8.13;;;6.93;;
65751;SDS011;52486;51.098;13.770;2022-08-19T06:03:21;13.93;;;7.50;;
65751;SDS011;52486;51.098;13.770;2022-08-19T06:05:47;10.82;;;7.20;;
65751;SDS011;52486;51.098;13.770;2022-08-19T06:08:12;13.20;;;7.95;;
65751;SDS011;52486;51.098;13.770;2022-08-19T06:10:38;10.43;;;7.47;;
65751;SDS011;52486;51.098;13.770;2022-08-19T06:13:03;12.13;;;7.57;;
65751;SDS011;52486;51.098;13.770;2022-08-19T06:15:30;8.02;;;6.85;;
65751;SDS011;52486;51.098;13.770;2022-08-19T06:17:56;8.32;;;7.05;;
65751;SDS011;52486;51.098;13.770;2022-08-19T06:20:22;8.15;;;6.40;;
65751;SDS011;52486;51.098;13.770;2022-08-19T06:22:48;7.68;;;6.90;;
65751;SDS011;52486;51.098;13.770;2022-08-19T06:25:17;9.02;;;6.45;;
65751;SDS011;52486;51.098;13.770;2022-08-19T06:27:44;6.93;;;6.10;;
65751;SDS011;52486;51.098;13.770;2022-08-19T06:30:10;6.60;;;5.88;;
65751;SDS011;52486;51.098;13.770;2022-08-19T06:32:37;12.40;;;5.43;;
65751;SDS011;52486;51.098;13.770;2022-08-19T06:35:03;11.43;;;5.50;;
65751;SDS011;52486;51.098;13.770;2022-08-19T06:37:29;10.02;;;5.32;;
65751;SDS011;52486;51.098;13.770;2022-08-19T06:39:55;7.32;;;5.25;;
65751;SDS011;52486;51.098;13.770;2022-08-19T06:42:21;9.50;;;5.28;;
65751;SDS011;52486;51.098;13.770;2022-08-19T06:44:47;8.05;;;4.95;;
65751;SDS011;52486;51.098;13.770;2022-08-19T06:47:18;13.07;;;4.95;;
65751;SDS011;52486;51.098;13.770;2022-08-19T06:49:44;6.53;;;5.20;;
65751;SDS011;52486;51.098;13.770;2022-08-19T06:52:10;9.70;;;5.43;;
65751;SDS011;52486;51.098;13.770;2022-08-19T06:54:37;9.68;;;5.05;;
65751;SDS011;52486;51.098;13.770;2022-08-19T06:57:04;7.05;;;5.32;;
65751;SDS011;52486;51.098;13.770;2022-08-19T06:59:32;12.65;;;6.50;;
65751;SDS011;52486;51.098;13.770;2022-08-19T07:01:59;7.22;;;6.57;;
65751;SDS011;52486;51.098;13.770;2022-08-19T07:04:28;6.75;;;5.88;;
65751;SDS011;52486;51.098;13.770;2022-08-19T07:06:57;7.83;;;7.17;;
65751;SDS011;52486;51.098;13.770;2022-08-19T07:09:25;13.48;;;6.85;;
65751;SDS011;52486;51.098;13.770;2022-08-19T07:11:52;10.55;;;7.25;;
65751;SDS011;52486;51.098;13.770;2022-08-19T07:14:20;7.65;;;6.72;;
65751;SDS011;52486;51.098;13.770;2022-08-19T07:16:50;7.97;;;7.15;;
65751;SDS011;52486;51.098;13.770;2022-08-19T07:19:17;7.03;;;6.22;;
65751;SDS011;52486;51.098;13.770;2022-08-19T07:21:43;10.80;;;7.35;;
65751;SDS011;52486;51.098;13.770;2022-08-19T07:24:10;13.20;;;6.43;;
65751;SDS011;52486;51.098;13.770;2022-08-19T07:26:38;8.55;;;7.22;;
65751;SDS011;52486;51.098;13.770;2022-08-19T07:29:06;8.38;;;7.10;;
65751;SDS011;52486;51.098;13.770;2022-08-19T07:31:32;12.25;;;8.63;;
65751;SDS011;52486;51.098;13.770;2022-08-19T07:34:02;11.57;;;9.60;;
65751;SDS011;52486;51.098;13.770;2022-08-19T07:38:59;11.23;;;8.23;;
65751;SDS011;52486;51.098;13.770;2022-08-19T07:41:28;11.70;;;9.03;;
65751;SDS011;52486;51.098;13.770;2022-08-19T07:43:56;10.73;;;9.63;;
65751;SDS011;52486;51.098;13.770;2022-08-19T07:46:24;10.48;;;9.05;;
65751;SDS011;52486;51.098;13.770;2022-08-19T07:48:49;11.20;;;7.90;;
65751;SDS011;52486;51.098;13.770;2022-08-19T07:51:18;10.93;;;9.30;;
65751;SDS011;52486;51.098;13.770;2022-08-19T07:53:46;8.55;;;7.75;;
65751;SDS011;52486;51.098;13.770;2022-08-19T07:56:13;13.55;;;8.88;;
65751;SDS011;52486;51.098;13.770;2022-08-19T07:58:42;7.47;;;6.78;;
65751;SDS011;52486;51.098;13.770;2022-08-19T08:01:11;10.43;;;7.57;;
65751;SDS011;52486;51.098;13.770;2022-08-19T08:03:40;8.55;;;7.60;;
65751;SDS011;52486;51.098;13.770;2022-08-19T08:06:25;7.82;;;7.13;;
65751;SDS011;52486;51.098;13.770;2022-08-19T08:09:09;8.77;;;7.65;;
65751;SDS011;52486;51.098;13.770;2022-08-19T08:11:50;11.10;;;7.93;;
65751;SDS011;52486;51.098;13.770;2022-08-19T08:14:21;8.73;;;7.80;;
65751;SDS011;52486;51.098;13.770;2022-08-19T08:16:49;9.18;;;7.88;;
65751;SDS011;52486;51.098;13.770;2022-08-19T08:19:17;9.52;;;7.70;;
65751;SDS011;52486;51.098;13.770;2022-08-19T08:21:46;11.53;;;8.03;;
65751;SDS011;52486;51.098;13.770;2022-08-19T08:24:11;9.05;;;8.10;;
65751;SDS011;52486;51.098;13.770;2022-08-19T08:26:37;9.98;;;7.97;;
65751;SDS011;52486;51.098;13.770;2022-08-19T08:29:04;9.95;;;6.88;;
65751;SDS011;52486;51.098;13.770;2022-08-19T08:31:29;8.40;;;7.60;;
65751;SDS011;52486;51.098;13.770;2022-08-19T08:33:55;7.95;;;7.15;;
65751;SDS011;52486;51.098;13.770;2022-08-19T08:36:21;9.32;;;7.20;;
65751;SDS011;52486;51.098;13.770;2022-08-19T08:38:46;9.23;;;7.35;;
65751;SDS011;52486;51.098;13.770;2022-08-19T08:41:25;9.30;;;7.50;;
65751;SDS011;52486;51.098;13.770;2022-08-19T08:44:13;8.13;;;7.13;;
65751;SDS011;52486;51.098;13.770;2022-08-19T08:46:48;8.75;;;7.95;;
65751;SDS011;52486;51.098;13.770;2022-08-19T08:54:37;10.25;;;7.93;;
65751;SDS011;52486;51.098;13.770;2022-08-19T08:57:07;7.45;;;6.75;;
65751;SDS011;52486;51.098;13.770;2022-08-19T08:59:40;7.80;;;7.00;;
65751;SDS011;52486;51.098;13.770;2022-08-19T09:02:08;8.70;;;6.40;;
65751;SDS011;52486;51.098;13.770;2022-08-19T09:04:38;6.97;;;6.18;;
65751;SDS011;52486;51.098;13.770;2022-08-19T09:07:26;7.37;;;6.50;;
65751;SDS011;52486;51.098;13.770;2022-08-19T09:10:46;7.30;;;6.57;;
65751;SDS011;52486;51.098;13.770;2022-08-19T09:16:00;6.88;;;6.20;;
65751;SDS011;52486;51.098;13.770;2022-08-19T09:19:05;8.02;;;5.72;;
65751;SDS011;52486;51.098;13.770;2022-08-19T09:21:26;6.03;;;5.45;;
65751;SDS011;52486;51.098;13.770;2022-08-19T09:23:52;5.80;;;5.22;;
65751;SDS011;52486;51.098;13.770;2022-08-19T09:26:20;9.52;;;5.72;;
65751;SDS011;52486;51.098;13.770;2022-08-19T09:28:48;8.23;;;5.35;;
65751;SDS011;52486;51.098;13.770;2022-08-19T09:31:19;5.72;;;5.22;;
65751;SDS011;52486;51.098;13.770;2022-08-19T09:33:47;9.52;;;5.55;;
65751;SDS011;52486;51.098;13.770;2022-08-19T09:36:14;9.80;;;5.45;;
65751;SDS011;52486;51.098;13.770;2022-08-19T09:38:40;13.27;;;6.15;;
65751;SDS011;52486;51.098;13.770;2022-08-19T09:41:07;11.30;;;5.80;;
65751;SDS011;52486;51.098;13.770;2022-08-19T09:43:33;8.88;;;5.30;;
65751;SDS011;52486;51.098;13.770;2022-08-19T09:46:05;10.25;;;5.80;;
65751;SDS011;52486;51.098;13.770;2022-08-19T09:48:38;6.80;;;5.50;;
65751;SDS011;52486;51.098;13.770;2022-08-19T09:51:14;10.00;;;5.60;;
65751;SDS011;52486;51.098;13.770;2022-08-19T09:53:41;7.88;;;5.75;;
65751;SDS011;52486;51.098;13.770;2022-08-19T09:56:08;6.30;;;5.55;;
65751;SDS011;52486;51.098;13.770;2022-08-19T09:58:34;12.23;;;5.80;;
65751;SDS011;52486;51.098;13.770;2022-08-19T10:01:01;7.25;;;5.28;;
65751;SDS011;52486;51.098;13.770;2022-08-19T10:03:28;5.65;;;5.03;;
65751;SDS011;52486;51.098;13.770;2022-08-19T10:05:55;5.82;;;4.93;;
65751;SDS011;52486;51.098;13.770;2022-08-19T10:08:23;9.15;;;5.93;;
65751;SDS011;52486;51.098;13.770;2022-08-19T10:10:50;8.35;;;5.70;;
65751;SDS011;52486;51.098;13.770;2022-08-19T10:13:17;5.93;;;5.40;;
65751;SDS011;52486;51.098;13.770;2022-08-19T10:15:46;9.50;;;5.90;;
65751;SDS011;52486;51.098;13.770;2022-08-19T10:18:16;7.70;;;6.90;;
65751;SDS011;52486;51.098;13.770;2022-08-19T10:20:43;6.00;;;5.50;;
65751;SDS011;52486;51.098;13.770;2022-08-19T10:23:10;5.80;;;5.25;;
65751;SDS011;52486;51.098;13.770;2022-08-19T10:25:36;6.57;;;5.57;;
65751;SDS011;52486;51.098;13.770;2022-08-19T10:28:02;12.85;;;5.78;;
65751;SDS011;52486;51.098;13.770;2022-08-19T10:30:31;9.50;;;5.80;;
65751;SDS011;52486;51.098;13.770;2022-08-19T10:32:57;6.20;;;5.70;;
65751;SDS011;52486;51.098;13.770;2022-08-19T10:35:23;13.88;;;6.07;;
65751;SDS011;52486;51.098;13.770;2022-08-19T10:37:54;7.13;;;5.90;;
65751;SDS011;52486;51.098;13.770;2022-08-19T10:40:24;8.95;;;5.15;;
65751;SDS011;52486;51.098;13.770;2022-08-19T10:42:51;7.55;;;5.60;;
65751;SDS011;52486;51.098;13.770;2022-08-19T10:50:09;8.65;;;6.07;;
65751;SDS011;52486;51.098;13.770;2022-08-19T10:52:53;6.32;;;5.72;;
65751;SDS011;52486;51.098;13.770;2022-08-19T10:55:21;9.07;;;6.20;;
65751;SDS011;52486;51.098;13.770;2022-08-19T10:58:13;6.43;;;5.60;;
65751;SDS011;52486;51.098;13.770;2022-08-19T11:00:40;6.88;;;6.15;;
65751;SDS011;52486;51.098;13.770;2022-08-19T11:03:07;5.90;;;5.30;;
65751;SDS011;52486;51.098;13.770;2022-08-19T11:05:33;6.75;;;6.10;;
65751;SDS011;52486;51.098;13.770;2022-08-19T11:07:59;6.65;;;5.38;;
65751;SDS011;52486;51.098;13.770;2022-08-19T11:10:25;6.03;;;5.50;;
65751;SDS011;52486;51.098;13.770;2022-08-19T11:12:51;7.43;;;5.57;;
65751;SDS011;52486;51.098;13.770;2022-08-19T11:15:19;8.35;;;5.60;;
65751;SDS011;52486;51.098;13.770;2022-08-19T11:17:46;6.45;;;5.18;;
65751;SDS011;52486;51.098;13.770;2022-08-19T11:20:12;9.82;;;5.20;;
65751;SDS011;52486;51.098;13.770;2022-08-19T11:22:38;6.65;;;5.10;;
65751;SDS011;52486;51.098;13.770;2022-08-19T11:25:05;5.18;;;4.43;;
65751;SDS011;52486;51.098;13.770;2022-08-19T11:27:32;5.22;;;4.70;;
65751;SDS011;52486;51.098;13.770;2022-08-19T11:29:58;8.25;;;5.40;;
65751;SDS011;52486;51.098;13.770;2022-08-19T11:32:25;6.07;;;5.38;;
65751;SDS011;52486;51.098;13.770;2022-08-19T11:34:52;5.40;;;5.00;;
65751;SDS011;52486;51.098;13.770;2022-08-19T11:37:19;6.45;;;5.07;;
65751;SDS011;52486;51.098;13.770;2022-08-19T11:39:45;5.80;;;5.20;;
65751;SDS011;52486;51.098;13.770;2022-08-19T11:42:11;10.13;;;5.35;;
65751;SDS011;52486;51.098;13.770;2022-08-19T11:45:04;8.43;;;5.32;;
65751;SDS011;52486;51.098;13.770;2022-08-19T11:47:30;7.30;;;5.53;;
65751;SDS011;52486;51.098;13.770;2022-08-19T11:49:56;5.20;;;4.68;;
65751;SDS011;52486;51.098;13.770;2022-08-19T11:52:22;9.00;;;5.43;;
65751;SDS011;52486;51.098;13.770;2022-08-19T11:54:48;6.05;;;5.40;;
65751;SDS011;52486;51.098;13.770;2022-08-19T11:57:14;5.38;;;4.88;;
65751;SDS011;52486;51.098;13.770;2022-08-19T11:59:42;6.30;;;5.70;;
65751;SDS011;52486;51.098;13.770;2022-08-19T12:02:08;7.50;;;5.82;;
65751;SDS011;52486;51.098;13.770;2022-08-19T12:04:35;7.07;;;5.35;;
65751;SDS011;52486;51.098;13.770;2022-08-19T12:07:01;5.90;;;5.25;;
65751;SDS011;52486;51.098;13.770;2022-08-19T12:09:28;10.13;;;6.03;;
65751;SDS011;52486;51.098;13.770;2022-08-19T12:11:54;10.18;;;6.38;;
65751;SDS011;52486;51.098;13.770;2022-08-19T12:14:20;12.32;;;5.60;;
65751;SDS011;52486;51.098;13.770;2022-08-19T12:16:46;13.23;;;5.70;;
65751;SDS011;52486;51.098;13.770;2022-08-19T12:19:13;8.02;;;5.38;;
65751;SDS011;52486;51.098;13.770;2022-08-19T12:21:40;11.15;;;6.10;;
65751;SDS011;52486;51.098;13.770;2022-08-19T12:24:06;9.15;;;6.97;;
65751;SDS011;52486;51.098;13.770;2022-08-19T12:26:32;10.80;;;7.05;;
65751;SDS011;52486;51.098;13.770;2022-08-19T12:28:59;8.88;;;7.18;;
65751;SDS011;52486;51.098;13.770;2022-08-19T12:31:26;8.35;;;7.53;;
65751;SDS011;52486;51.098;13.770;2022-08-19T12:33:53;15.02;;;7.97;;
65751;SDS011;52486;51.098;13.770;2022-08-19T12:36:19;13.18;;;7.85;;
65751;SDS011;52486;51.098;13.770;2022-08-19T12:38:46;8.57;;;7.78;;
65751;SDS011;52486;51.098;13.770;2022-08-19T12:41:13;10.75;;;7.45;;
65751;SDS011;52486;51.098;13.770;2022-08-19T12:43:40;11.00;;;7.25;;
65751;SDS011;52486;51.098;13.770;2022-08-19T12:46:07;10.13;;;8.50;;
65751;SDS011;52486;51.098;13.770;2022-08-19T12:48:33;9.93;;;7.97;;
65751;SDS011;52486;51.098;13.770;2022-08-19T12:50:59;12.15;;;8.48;;
65751;SDS011;52486;51.098;13.770;2022-08-19T12:53:26;12.20;;;9.52;;
65751;SDS011;52486;51.098;13.770;2022-08-19T12:56:00;14.50;;;9.10;;
65751;SDS011;52486;51.098;13.770;2022-08-19T12:58:26;14.63;;;9.18;;
65751;SDS011;52486;51.098;13.770;2022-08-19T13:00:53;10.88;;;8.93;;
65751;SDS011;52486;51.098;13.770;2022-08-19T13:03:20;15.20;;;10.10;;
65751;SDS011;52486;51.098;13.770;2022-08-19T13:05:47;14.10;;;10.07;;
65751;SDS011;52486;51.098;13.770;2022-08-19T13:08:15;11.10;;;9.80;;
65751;SDS011;52486;51.098;13.770;2022-08-19T13:10:42;12.27;;;9.70;;
65751;SDS011;52486;51.098;13.770;2022-08-19T13:13:08;13.98;;;9.55;;
65751;SDS011;52486;51.098;13.770;2022-08-19T13:15:40;10.32;;;9.27;;
65751;SDS011;52486;51.098;13.770;2022-08-19T13:18:07;12.43;;;8.48;;
65751;SDS011;52486;51.098;13.770;2022-08-19T13:20:34;14.80;;;8.75;;
65751;SDS011;52486;51.098;13.770;2022-08-19T13:23:00;10.13;;;8.68;;
65751;SDS011;52486;51.098;13.770;2022-08-19T13:25:26;18.38;;;9.23;;
65751;SDS011;52486;51.098;13.770;2022-08-19T13:27:52;8.77;;;7.97;;
65751;SDS011;52486;51.098;13.770;2022-08-19T13:30:20;11.85;;;7.85;;
65751;SDS011;52486;51.098;13.770;2022-08-19T13:33:05;9.65;;;8.68;;
65751;SDS011;52486;51.098;13.770;2022-08-19T13:38:10;8.82;;;7.57;;
65751;SDS011;52486;51.098;13.770;2022-08-19T13:40:36;10.23;;;7.85;;
65751;SDS011;52486;51.098;13.770;2022-08-19T13:43:04;9.43;;;8.27;;
65751;SDS011;52486;51.098;13.770;2022-08-19T13:45:31;8.60;;;7.80;;
65751;SDS011;52486;51.098;13.770;2022-08-19T13:47:59;9.50;;;7.88;;
65751;SDS011;52486;51.098;13.770;2022-08-19T13:50:27;8.13;;;7.32;;
65751;SDS011;52486;51.098;13.770;2022-08-19T13:52:54;9.77;;;7.50;;
65751;SDS011;52486;51.098;13.770;2022-08-19T13:55:21;8.43;;;7.18;;
65751;SDS011;52486;51.098;13.770;2022-08-19T13:57:54;9.32;;;7.93;;
65751;SDS011;52486;51.098;13.770;2022-08-19T14:00:21;9.45;;;7.57;;
65751;SDS011;52486;51.098;13.770;2022-08-19T14:02:50;8.50;;;7.57;;
65751;SDS011;52486;51.098;13.770;2022-08-19T14:05:17;8.13;;;7.32;;
65751;SDS011;52486;51.098;13.770;2022-08-19T14:07:44;10.23;;;7.45;;
65751;SDS011;52486;51.098;13.770;2022-08-19T14:10:11;8.65;;;7.82;;
65751;SDS011;52486;51.098;13.770;2022-08-19T14:12:38;8.93;;;8.02;;
65751;SDS011;52486;51.098;13.770;2022-08-19T14:15:05;8.77;;;7.85;;
65751;SDS011;52486;51.098;13.770;2022-08-19T14:17:31;8.48;;;7.65;;
65751;SDS011;52486;51.098;13.770;2022-08-19T14:20:00;8.23;;;7.40;;
65751;SDS011;52486;51.098;13.770;2022-08-19T14:22:29;8.73;;;7.38;;
65751;SDS011;52486;51.098;13.770;2022-08-19T14:24:58;13.07;;;7.80;;
65751;SDS011;52486;51.098;13.770;2022-08-19T14:27:24;10.90;;;8.10;;
65751;SDS011;52486;51.098;13.770;2022-08-19T14:29:53;11.65;;;7.85;;
65751;SDS011;52486;51.098;13.770;2022-08-19T14:32:20;8.83;;;7.73;;
65751;SDS011;52486;51.098;13.770;2022-08-19T14:34:46;8.95;;;7.38;;
65751;SDS011;52486;51.098;13.770;2022-08-19T14:37:13;12.70;;;7.70;;
65751;SDS011;52486;51.098;13.770;2022-08-19T14:39:40;9.18;;;7.40;;
65751;SDS011;52486;51.098;13.770;2022-08-19T14:42:07;9.88;;;7.88;;
65751;SDS011;52486;51.098;13.770;2022-08-19T14:44:33;11.98;;;8.55;;
65751;SDS011;52486;51.098;13.770;2022-08-19T14:46:59;11.23;;;7.95;;
65751;SDS011;52486;51.098;13.770;2022-08-19T14:49:25;10.95;;;8.57;;
65751;SDS011;52486;51.098;13.770;2022-08-19T14:51:51;17.50;;;9.20;;
65751;SDS011;52486;51.098;13.770;2022-08-19T14:54:17;12.45;;;8.77;;
65751;SDS011;52486;51.098;13.770;2022-08-19T14:56:43;10.70;;;9.25;;
65751;SDS011;52486;51.098;13.770;2022-08-19T14:59:09;12.23;;;8.77;;
65751;SDS011;52486;51.098;13.770;2022-08-19T15:01:36;12.63;;;8.85;;
65751;SDS011;52486;51.098;13.770;2022-08-19T15:04:02;13.40;;;8.15;;
65751;SDS011;52486;51.098;13.770;2022-08-19T15:06:28;10.38;;;8.25;;